Time;durP1;ratioP1;P1;durP2;ratioP2;P2;SDS_P1;SDS_P2;PMS_P1;PMS_P2;Temp;Humidity;BMP_temperature;BMP_pressure;BME280_temperature;BME280_humidity;BME280_pressure;Samples;Min_cycle;Max_cycle;Signal;HPM_P1;HPM_P2
2023/08/25 00:01:15;;;;;;;19.80;14.18;;;;;;;-148.15;100.00;61821.78;4954570;28;20482;-88
2023/08/25 00:03:40;;;;;;;23.40;16.10;;;;;;;-148.15;100.00;61821.78;4972237;28;20085;-88
2023/08/25 00:06:05;;;;;;;46.05;27.33;;;;;;;-148.15;100.00;61821.78;4971857;28;20598;-88
2023/08/25 00:08:31;;;;;;;57.80;32.13;;;;;;;-148.15;100.00;61821.78;4972789;28;20045;-89
2023/08/25 00:10:56;;;;;;;55.27;33.03;;;;;;;-148.15;100.00;61821.78;4972116;28;20061;-89
2023/08/25 00:13:21;;;;;;;44.37;28.03;;;;;;;-148.15;100.00;61821.78;4974063;28;20042;-89
2023/08/25 00:15:49;;;;;;;53.13;31.77;;;;;;;-148.15;100.00;61821.78;4975131;28;20046;-89
2023/08/25 00:18:14;;;;;;;39.80;26.63;;;;;;;-148.15;100.00;61821.78;4974325;28;20442;-88
2023/08/25 00:20:39;;;;;;;33.83;22.13;;;;;;;-148.15;100.00;61821.78;4972199;28;20071;-89
2023/08/25 00:23:04;;;;;;;32.20;19.33;;;;;;;-148.15;100.00;61821.78;4976005;28;20066;-88
2023/08/25 00:25:30;;;;;;;26.67;16.47;;;;;;;-148.15;100.00;61821.78;4971974;28;20042;-88
2023/08/25 00:27:56;;;;;;;18.58;14.63;;;;;;;-148.15;100.00;61821.78;4970877;28;20073;-89
2023/08/25 00:30:22;;;;;;;21.53;14.63;;;;;;;-148.15;100.00;61821.78;4972025;28;20046;-88
2023/08/25 00:32:47;;;;;;;19.63;13.68;;;;;;;-148.15;100.00;61821.78;4972018;28;20051;-89
2023/08/25 00:35:12;;;;;;;17.67;12.80;;;;;;;-148.15;100.00;61821.78;4971979;28;20026;-89
2023/08/25 00:37:37;;;;;;;15.93;11.50;;;;;;;-148.15;100.00;61821.78;4971068;28;20084;-89
2023/08/25 00:40:03;;;;;;;14.67;11.77;;;;;;;-148.15;100.00;61821.78;4971774;28;20026;-89
2023/08/25 00:42:29;;;;;;;17.65;11.63;;;;;;;-148.15;100.00;61821.78;4972066;28;20394;-89
2023/08/25 00:44:54;;;;;;;19.07;14.27;;;;;;;-148.15;100.00;61821.78;4971771;28;20038;-89
2023/08/25 00:47:20;;;;;;;20.70;14.37;;;;;;;-148.15;100.00;61821.78;4971408;28;20105;-88
2023/08/25 00:49:47;;;;;;;21.85;13.60;;;;;;;-148.15;100.00;61821.78;4971868;28;20039;-89
2023/08/25 00:52:16;;;;;;;16.50;12.15;;;;;;;-148.15;100.00;61821.78;4972275;28;20030;-89
2023/08/25 00:54:43;;;;;;;18.48;12.50;;;;;;;-148.15;100.00;61821.78;4971604;28;20113;-89
2023/08/25 00:57:09;;;;;;;15.88;12.35;;;;;;;-148.15;100.00;61821.78;4971481;28;20457;-89
2023/08/25 00:59:35;;;;;;;15.90;11.53;;;;;;;-148.15;100.00;61821.78;4971567;28;20031;-89
2023/08/25 01:02:01;;;;;;;18.67;12.82;;;;;;;-148.15;100.00;61821.78;4972077;28;20093;-89
2023/08/25 01:04:26;;;;;;;21.43;13.00;;;;;;;-148.15;100.00;61821.78;4971617;28;20527;-89
2023/08/25 01:06:51;;;;;;;16.47;12.40;;;;;;;-148.15;100.00;61821.78;4971162;28;20031;-89
2023/08/25 01:09:18;;;;;;;15.67;11.90;;;;;;;-148.15;100.00;61821.78;4953819;28;20292;-88
2023/08/25 01:12:08;;;;;;;17.67;12.90;;;;;;;-148.15;100.00;61821.78;4953704;28;20406;-88
2023/08/25 01:15:07;;;;;;;18.10;12.90;;;;;;;-148.15;100.00;61821.78;4970585;28;20380;-88
2023/08/25 01:17:41;;;;;;;17.27;12.70;;;;;;;-148.15;100.00;61821.78;4971398;28;20035;-89
2023/08/25 01:20:08;;;;;;;17.50;13.15;;;;;;;-148.15;100.00;61821.78;4971081;28;20115;-88
2023/08/25 01:23:07;;;;;;;18.33;13.45;;;;;;;-148.15;100.00;61821.78;4971041;28;20030;-89
2023/08/25 01:25:33;;;;;;;17.48;12.70;;;;;;;-148.15;100.00;61821.78;4970678;28;20106;-88
2023/08/25 01:28:02;;;;;;;19.33;12.87;;;;;;;-148.15;100.00;61821.78;4970976;28;20633;-89
2023/08/25 01:30:32;;;;;;;20.55;13.52;;;;;;;-148.15;100.00;61821.78;4970736;28;20023;-88
2023/08/25 01:32:58;;;;;;;16.75;13.85;;;;;;;-148.15;100.00;61821.78;4971233;28;20042;-89
2023/08/25 01:35:35;;;;;;;16.25;12.88;;;;;;;-148.15;100.00;61821.78;4957014;28;20142;-89
2023/08/25 01:38:16;;;;;;;18.35;14.35;;;;;;;-148.15;100.00;61821.78;4971062;28;20471;-89
2023/08/25 01:40:50;;;;;;;21.25;13.65;;;;;;;-148.15;100.00;61821.78;4971859;28;20035;-89
2023/08/25 01:43:19;;;;;;;21.90;14.70;;;;;;;-148.15;100.00;61821.78;4971054;28;20037;-88
2023/08/25 01:45:48;;;;;;;20.77;14.30;;;;;;;-148.15;100.00;61821.78;4970441;28;20647;-89
2023/08/25 01:48:14;;;;;;;28.23;16.35;;;;;;;-148.15;100.00;61821.78;4970884;28;20043;-89
2023/08/25 01:50:40;;;;;;;21.25;15.85;;;;;;;-148.15;100.00;61821.78;4970926;28;20604;-88
2023/08/25 01:53:08;;;;;;;22.20;16.00;;;;;;;-148.15;100.00;61821.78;4970955;28;20034;-89
2023/08/25 01:55:34;;;;;;;27.42;15.52;;;;;;;-148.15;100.00;61821.78;4970821;28;20117;-88
2023/08/25 01:58:00;;;;;;;20.85;16.35;;;;;;;-148.15;100.00;61821.78;4953302;28;20030;-89
2023/08/25 02:00:25;;;;;;;21.87;15.97;;;;;;;-148.15;100.00;61821.78;4970773;28;20049;-89
2023/08/25 02:02:50;;;;;;;22.03;16.27;;;;;;;-148.15;100.00;61821.78;4970598;28;20030;-89
2023/08/25 02:05:15;;;;;;;24.57;17.93;;;;;;;-148.15;100.00;61821.78;4970953;28;20110;-89
2023/08/25 02:07:41;;;;;;;20.87;16.20;;;;;;;-148.15;100.00;61821.78;4970194;28;20031;-89
2023/08/25 02:10:07;;;;;;;25.93;16.77;;;;;;;-148.15;100.00;61821.78;4971052;28;20270;-89
2023/08/25 02:12:33;;;;;;;20.50;15.97;;;;;;;-148.15;100.00;61821.78;4970941;28;20022;-89
2023/08/25 02:14:59;;;;;;;21.13;15.82;;;;;;;-148.15;100.00;61821.78;4970735;28;20121;-89
2023/08/25 02:17:24;;;;;;;19.23;15.38;;;;;;;-148.15;100.00;61821.78;4970194;28;20109;-89
2023/08/25 02:19:49;;;;;;;21.57;17.27;;;;;;;-148.15;100.00;61821.78;4970594;28;20493;-89
2023/08/25 02:22:15;;;;;;;24.50;17.83;;;;;;;-148.15;100.00;61821.78;4970753;28;20510;-88
2023/08/25 02:24:40;;;;;;;23.80;17.67;;;;;;;-148.15;100.00;61821.78;4970632;28;20026;-89
2023/08/25 02:27:05;;;;;;;21.00;16.93;;;;;;;-148.15;100.00;61821.78;4973679;28;20078;-89
2023/08/25 02:29:31;;;;;;;26.90;19.43;;;;;;;-148.15;100.00;61821.78;4974062;28;20023;-89
2023/08/25 02:31:56;;;;;;;22.67;17.80;;;;;;;-148.15;100.00;61821.78;4973744;28;20289;-89
2023/08/25 02:34:22;;;;;;;27.67;18.30;;;;;;;-148.15;100.00;61821.78;4974259;28;20023;-89
2023/08/25 02:36:47;;;;;;;26.13;19.23;;;;;;;-148.15;100.00;61821.78;4973433;28;20138;-88
2023/08/25 02:39:13;;;;;;;25.67;18.53;;;;;;;-148.15;100.00;61821.78;4974593;28;20038;-89
2023/08/25 02:41:38;;;;;;;24.93;18.70;;;;;;;-148.15;100.00;61821.78;4973550;28;20125;-89
2023/08/25 02:44:04;;;;;;;28.37;19.53;;;;;;;-148.15;100.00;61821.78;4973757;28;20034;-88
2023/08/25 02:46:29;;;;;;;24.35;18.13;;;;;;;-148.15;100.00;61821.78;4973123;28;20066;-89
2023/08/25 02:48:54;;;;;;;25.27;20.50;;;;;;;-148.15;100.00;61821.78;4973415;28;20023;-88
2023/08/25 02:51:20;;;;;;;30.17;21.10;;;;;;;-148.15;100.00;61821.78;4974131;28;20034;-89
2023/08/25 02:53:45;;;;;;;31.67;21.17;;;;;;;-148.15;100.00;61821.78;4973022;28;20034;-89
2023/08/25 02:56:10;;;;;;;26.63;20.77;;;;;;;-148.15;100.00;61821.78;4973128;28;20034;-89
2023/08/25 02:58:35;;;;;;;25.57;20.83;;;;;;;-148.15;100.00;61821.78;4974190;28;20027;-89
2023/08/25 03:01:01;;;;;;;30.45;21.95;;;;;;;-148.15;100.00;61821.78;4974181;28;20565;-89
2023/08/25 03:03:28;;;;;;;31.40;23.30;;;;;;;-148.15;100.00;61821.78;4973808;28;20031;-89
2023/08/25 03:05:57;;;;;;;29.98;21.20;;;;;;;-148.15;100.00;61821.78;4972726;28;20497;-89
2023/08/25 03:08:23;;;;;;;27.90;21.87;;;;;;;-148.15;100.00;61821.78;4973634;28;20085;-89
2023/08/25 03:10:49;;;;;;;26.70;21.07;;;;;;;-148.15;100.00;61821.78;4973101;28;20278;-88
2023/08/25 03:13:14;;;;;;;28.08;21.23;;;;;;;-148.15;100.00;61821.78;4973551;28;20054;-89
2023/08/25 03:15:39;;;;;;;26.40;19.97;;;;;;;-148.15;100.00;61821.78;4972686;28;20039;-89
2023/08/25 03:18:05;;;;;;;28.93;20.33;;;;;;;-148.15;100.00;61821.78;4973467;28;20033;-89
2023/08/25 03:20:30;;;;;;;26.97;20.27;;;;;;;-148.15;100.00;61821.78;4974830;28;20081;-89
2023/08/25 03:22:57;;;;;;;27.00;20.10;;;;;;;-148.15;100.00;61821.78;4973217;28;20486;-89
2023/08/25 03:25:22;;;;;;;26.13;20.13;;;;;;;-148.15;100.00;61821.78;4973433;28;20027;-89
2023/08/25 03:27:48;;;;;;;27.37;20.57;;;;;;;-148.15;100.00;61821.78;4972407;28;20031;-89
2023/08/25 03:30:13;;;;;;;27.23;19.77;;;;;;;-148.15;100.00;61821.78;4973133;28;20057;-89
2023/08/25 03:32:38;;;;;;;26.20;20.13;;;;;;;-148.15;100.00;61821.78;4972733;28;20037;-89
2023/08/25 03:35:06;;;;;;;29.90;19.00;;;;;;;-148.15;100.00;61821.78;4972861;28;20182;-89
2023/08/25 03:37:31;;;;;;;24.98;19.92;;;;;;;-148.15;100.00;61821.78;4972606;28;20027;-89
2023/08/25 03:39:56;;;;;;;23.70;17.70;;;;;;;-148.15;100.00;61821.78;4972896;28;20505;-89
2023/08/25 03:42:21;;;;;;;23.90;17.60;;;;;;;-148.15;100.00;61821.78;4972998;28;20030;-89
2023/08/25 03:44:48;;;;;;;25.33;19.60;;;;;;;-148.15;100.00;61821.78;4972648;28;20289;-89
2023/08/25 03:47:13;;;;;;;28.23;19.95;;;;;;;-148.15;100.00;61821.78;4972409;28;20023;-89
2023/08/25 03:49:38;;;;;;;32.73;20.60;;;;;;;-148.15;100.00;61821.78;4972827;28;20037;-88
2023/08/25 03:52:05;;;;;;;24.53;18.63;;;;;;;-148.15;100.00;61821.78;4972383;28;20562;-89
2023/08/25 03:54:31;;;;;;;26.65;20.60;;;;;;;-148.15;100.00;61821.78;4972778;28;20027;-89
2023/08/25 03:56:57;;;;;;;26.48;19.15;;;;;;;-148.15;100.00;61821.78;4972376;28;20027;-89
2023/08/25 03:59:23;;;;;;;29.48;20.13;;;;;;;-148.15;100.00;61821.78;4972979;28;20503;-89
2023/08/25 04:01:48;;;;;;;26.70;17.43;;;;;;;-148.15;100.00;61821.78;4972327;28;20038;-89
2023/08/25 04:04:13;;;;;;;25.37;18.90;;;;;;;-148.15;100.00;61821.78;4972452;28;20391;-89
2023/08/25 04:06:39;;;;;;;29.03;18.40;;;;;;;-148.15;100.00;61821.78;4971911;28;20051;-89
2023/08/25 04:09:04;;;;;;;31.50;19.53;;;;;;;-148.15;100.00;61821.78;4972588;28;20081;-89
2023/08/25 04:11:29;;;;;;;26.02;19.42;;;;;;;-148.15;100.00;61821.78;4972430;28;20022;-89
2023/08/25 04:13:55;;;;;;;27.40;21.03;;;;;;;-148.15;100.00;61821.78;4975086;28;20033;-89
2023/08/25 04:16:20;;;;;;;28.97;19.73;;;;;;;-148.15;100.00;61821.78;4971966;28;20162;-89
2023/08/25 04:18:45;;;;;;;24.13;17.93;;;;;;;-148.15;100.00;61821.78;4971828;28;20035;-89
2023/08/25 04:21:11;;;;;;;23.43;18.07;;;;;;;-148.15;100.00;61821.78;4972489;28;20026;-88
2023/08/25 04:23:36;;;;;;;25.97;19.43;;;;;;;-148.15;100.00;61821.78;4972304;28;20019;-89
2023/08/25 04:26:02;;;;;;;23.93;17.00;;;;;;;-148.15;100.00;61821.78;4954319;28;20353;-88
2023/08/25 04:28:27;;;;;;;21.60;17.37;;;;;;;-148.15;100.00;61821.78;4972113;28;20106;-89
2023/08/25 04:30:56;;;;;;;22.15;15.60;;;;;;;-148.15;100.00;61821.78;4971548;28;20227;-89
2023/08/25 04:33:21;;;;;;;28.57;18.63;;;;;;;-148.15;100.00;61821.78;4972098;28;20086;-89
2023/08/25 04:35:46;;;;;;;21.53;17.40;;;;;;;-148.15;100.00;61821.78;4970786;28;20286;-89
2023/08/25 04:38:12;;;;;;;25.00;17.07;;;;;;;-148.15;100.00;61821.78;4972025;28;20037;-89
2023/08/25 04:40:37;;;;;;;26.40;16.90;;;;;;;-148.15;100.00;61821.78;4971715;28;20023;-89
2023/08/25 04:43:04;;;;;;;27.33;18.45;;;;;;;-148.15;100.00;61821.78;4971828;28;20081;-89
2023/08/25 04:45:29;;;;;;;22.60;16.77;;;;;;;-148.15;100.00;61821.78;4971575;28;20029;-89
2023/08/25 04:47:54;;;;;;;26.25;17.52;;;;;;;-148.15;100.00;61821.78;4953322;28;20026;-89
2023/08/25 04:50:20;;;;;;;23.67;17.00;;;;;;;-148.15;100.00;61821.78;4971254;28;20379;-89
2023/08/25 04:52:45;;;;;;;27.20;17.67;;;;;;;-148.15;100.00;61821.78;4971454;28;20118;-89
2023/08/25 04:55:11;;;;;;;24.00;16.83;;;;;;;-148.15;100.00;61821.78;4971701;28;20105;-89
2023/08/25 04:57:37;;;;;;;22.98;17.48;;;;;;;-148.15;100.00;61821.78;4953385;28;20027;-88
2023/08/25 05:00:05;;;;;;;20.58;16.42;;;;;;;-148.15;100.00;61821.78;4971564;28;20078;-89
2023/08/25 05:02:30;;;;;;;28.10;18.48;;;;;;;-148.15;100.00;61821.78;4972005;28;20592;-90
2023/08/25 05:04:56;;;;;;;35.67;20.07;;;;;;;-148.15;100.00;61821.78;4971835;28;20026;-91
2023/08/25 05:07:21;;;;;;;26.45;19.27;;;;;;;-148.15;100.00;61821.78;4971624;28;20038;-91
2023/08/25 05:09:47;;;;;;;29.53;18.70;;;;;;;-148.15;100.00;61821.78;4973828;28;20662;-91
2023/08/25 05:12:12;;;;;;;27.67;18.53;;;;;;;-148.15;100.00;61821.78;4974538;28;20499;-88
2023/08/25 05:14:38;;;;;;;30.37;19.80;;;;;;;-148.15;100.00;61821.78;4976853;28;20495;-90
2023/08/25 05:17:03;;;;;;;28.60;19.37;;;;;;;-148.15;100.00;61821.78;4974534;28;20371;-90
2023/08/25 05:19:28;;;;;;;30.73;19.33;;;;;;;-148.15;100.00;61821.78;4957642;28;20293;-89
2023/08/25 05:21:54;;;;;;;28.40;19.10;;;;;;;-148.15;100.00;61821.78;4972954;28;20031;-90
2023/08/25 05:24:25;;;;;;;33.70;20.27;;;;;;;-148.15;100.00;61821.78;4972578;28;20113;-90
2023/08/25 05:26:54;;;;;;;28.17;19.80;;;;;;;-148.15;100.00;61821.78;4972263;28;20059;-90
2023/08/25 05:29:20;;;;;;;35.53;21.17;;;;;;;-148.15;100.00;61821.78;4972983;28;20035;-90
2023/08/25 05:31:46;;;;;;;36.88;21.63;;;;;;;-148.15;100.00;61821.78;4974007;28;20461;-88
2023/08/25 05:34:11;;;;;;;33.17;21.80;;;;;;;-148.15;100.00;61821.78;4972445;28;20105;-89
2023/08/25 05:36:37;;;;;;;36.17;22.47;;;;;;;-148.15;100.00;61821.78;4970609;28;20022;-90
2023/08/25 05:39:04;;;;;;;27.77;18.90;;;;;;;-148.15;100.00;61821.78;4973062;28;20027;-90
2023/08/25 05:41:29;;;;;;;31.08;21.55;;;;;;;-148.15;100.00;61821.78;4971353;28;20130;-89
2023/08/25 05:43:54;;;;;;;33.03;20.23;;;;;;;-148.15;100.00;61821.78;4970661;28;20535;-89
2023/08/25 05:46:20;;;;;;;30.77;20.20;;;;;;;-148.15;100.00;61821.78;4971169;28;20110;-90
2023/08/25 05:48:45;;;;;;;25.58;19.35;;;;;;;-148.15;100.00;61821.78;4970475;28;20043;-90
2023/08/25 05:51:10;;;;;;;25.67;18.90;;;;;;;-148.15;100.00;61821.78;4971203;28;20107;-90
2023/08/25 05:53:36;;;;;;;27.17;17.47;;;;;;;-148.15;100.00;61821.78;4970344;28;20363;-90
2023/08/25 05:56:01;;;;;;;22.60;16.87;;;;;;;-148.15;100.00;61821.78;4970734;28;20078;-91
2023/08/25 05:58:26;;;;;;;19.93;16.03;;;;;;;-148.15;100.00;61821.78;4970611;28;20491;-90
2023/08/25 06:00:52;;;;;;;22.47;17.50;;;;;;;-148.15;100.00;61821.78;4972941;28;20630;-90
2023/08/25 06:03:18;;;;;;;24.23;17.23;;;;;;;-148.15;100.00;61821.78;4974828;28;20029;-89
2023/08/25 06:05:45;;;;;;;22.70;15.65;;;;;;;-148.15;100.00;61821.78;4956996;28;20556;-90
2023/08/25 06:08:11;;;;;;;20.98;15.55;;;;;;;-148.15;100.00;61821.78;4974322;28;20034;-90
2023/08/25 06:10:36;;;;;;;22.10;15.40;;;;;;;-148.15;100.00;61821.78;4974568;28;20106;-90
2023/08/25 06:13:02;;;;;;;21.60;15.80;;;;;;;-148.15;100.00;61821.78;4974496;28;20433;-90
2023/08/25 06:15:27;;;;;;;22.05;16.40;;;;;;;-148.15;100.00;61821.78;4975000;28;20077;-90
2023/08/25 06:17:52;;;;;;;20.77;16.37;;;;;;;-148.15;100.00;61821.78;4973729;28;20023;-90
2023/08/25 06:20:18;;;;;;;21.70;16.77;;;;;;;-148.15;100.00;61821.78;4974924;28;20026;-89
2023/08/25 06:22:43;;;;;;;24.40;17.17;;;;;;;-148.15;100.00;61821.78;4974021;28;20030;-89
2023/08/25 06:25:09;;;;;;;25.90;16.90;;;;;;;-148.15;100.00;61821.78;4974569;28;20043;-90
2023/08/25 06:27:35;;;;;;;22.10;17.10;;;;;;;-148.15;100.00;61821.78;4973413;28;20774;-89
2023/08/25 06:30:02;;;;;;;19.73;16.45;;;;;;;-148.15;100.00;61821.78;4974699;28;20038;-90
2023/08/25 06:32:28;;;;;;;21.63;16.35;;;;;;;-148.15;100.00;61821.78;4974539;28;20023;-90
2023/08/25 06:34:53;;;;;;;23.63;17.10;;;;;;;-148.15;100.00;61821.78;4974343;28;20035;-89
2023/08/25 06:37:18;;;;;;;23.50;17.40;;;;;;;-148.15;100.00;61821.78;4988608;28;20041;-90
2023/08/25 06:39:45;;;;;;;19.67;16.40;;;;;;;-148.15;100.00;61821.78;4974406;28;20026;-90
2023/08/25 06:42:11;;;;;;;26.17;17.55;;;;;;;-148.15;100.00;61821.78;4974137;28;20034;-90
2023/08/25 06:44:37;;;;;;;27.33;17.00;;;;;;;-148.15;100.00;61821.78;4974766;28;20454;-89
2023/08/25 06:47:02;;;;;;;22.73;17.67;;;;;;;-148.15;100.00;61821.78;4973614;28;20027;-89
2023/08/25 06:49:27;;;;;;;22.67;18.37;;;;;;;-148.15;100.00;61821.78;4974340;28;20517;-90
2023/08/25 06:51:53;;;;;;;24.60;16.75;;;;;;;-148.15;100.00;61821.78;4976085;28;20038;-89
2023/08/25 06:54:18;;;;;;;21.80;16.37;;;;;;;-148.15;100.00;61821.78;4974221;28;20058;-89
2023/08/25 06:56:44;;;;;;;20.90;16.50;;;;;;;-148.15;100.00;61821.78;4972702;28;20054;-89
2023/08/25 06:59:13;;;;;;;24.23;17.30;;;;;;;-148.15;100.00;61821.78;4975670;28;20387;-90
2023/08/25 07:01:39;;;;;;;27.48;18.85;;;;;;;-148.15;100.00;61821.78;4973769;28;20023;-90
2023/08/25 07:04:04;;;;;;;31.50;21.38;;;;;;;-148.15;100.00;61821.78;4974291;28;20553;-90
2023/08/25 07:06:30;;;;;;;31.50;20.90;;;;;;;-148.15;100.00;61821.78;4973835;28;20056;-91
2023/08/25 07:08:55;;;;;;;32.55;21.90;;;;;;;-148.15;100.00;61821.78;4974959;28;20089;-91
2023/08/25 07:11:20;;;;;;;33.50;23.03;;;;;;;-148.15;100.00;61821.78;4973353;28;20383;-91
2023/08/25 07:13:46;;;;;;;37.73;23.20;;;;;;;-148.15;100.00;61821.78;4973338;28;20049;-91
2023/08/25 07:16:11;;;;;;;34.30;22.87;;;;;;;-148.15;100.00;61821.78;4972953;28;20027;-90
2023/08/25 07:18:37;;;;;;;35.57;23.33;;;;;;;-148.15;100.00;61821.78;4973497;28;20106;-90
2023/08/25 07:21:04;;;;;;;33.25;24.25;;;;;;;-148.15;100.00;61821.78;4973555;28;20478;-90
2023/08/25 07:23:29;;;;;;;34.50;24.60;;;;;;;-148.15;100.00;61821.78;4974192;28;20043;-90
2023/08/25 07:25:54;;;;;;;41.30;24.47;;;;;;;-148.15;100.00;61821.78;4972853;28;20030;-90
2023/08/25 07:28:20;;;;;;;40.33;25.13;;;;;;;-148.15;100.00;61821.78;4973879;28;20094;-91
2023/08/25 07:30:45;;;;;;;46.00;25.73;;;;;;;-148.15;100.00;61821.78;4978959;28;20031;-89
2023/08/25 07:33:10;;;;;;;48.27;24.63;;;;;;;-148.15;100.00;61821.78;4983546;28;20069;-90
2023/08/25 07:35:36;;;;;;;62.73;26.00;;;;;;;-148.15;100.00;61821.78;4980245;28;20038;-89
2023/08/25 07:38:03;;;;;;;47.70;24.83;;;;;;;-148.15;100.00;61821.78;4977647;28;20033;-89
2023/08/25 07:40:28;;;;;;;41.93;24.53;;;;;;;-148.15;100.00;61821.78;4974744;28;20351;-89
2023/08/25 07:43:00;;;;;;;44.22;25.60;;;;;;;-148.15;100.00;61821.78;4955414;28;20071;-90
2023/08/25 07:45:26;;;;;;;44.75;27.25;;;;;;;-148.15;100.00;61821.78;4938836;29;20475;-90
2023/08/25 07:47:52;;;;;;;45.63;27.03;;;;;;;-148.15;100.00;61821.78;4959488;28;20102;-89
2023/08/25 07:50:17;;;;;;;51.23;27.60;;;;;;;-148.15;100.00;61821.78;4974190;28;20369;-90
2023/08/25 07:52:43;;;;;;;47.03;28.33;;;;;;;-148.15;100.00;61821.78;4975389;28;20062;-90
2023/08/25 07:55:08;;;;;;;40.00;25.33;;;;;;;-148.15;100.00;61821.78;4973633;28;20224;-89
2023/08/25 07:57:35;;;;;;;38.35;25.02;;;;;;;-148.15;100.00;61821.78;4956067;28;20022;-90
2023/08/25 08:00:00;;;;;;;35.22;22.38;;;;;;;-148.15;100.00;61821.78;4973526;28;20027;-90
2023/08/25 08:02:25;;;;;;;34.63;21.20;;;;;;;-148.15;100.00;61821.78;4956785;28;20498;-90
2023/08/25 08:04:51;;;;;;;30.90;21.00;;;;;;;-148.15;100.00;61821.78;4973347;28;20038;-90
2023/08/25 08:07:17;;;;;;;35.30;22.13;;;;;;;-148.15;100.00;61821.78;4974071;28;20046;-90
2023/08/25 08:09:42;;;;;;;30.07;21.20;;;;;;;-148.15;100.00;61821.78;4973356;28;20033;-91
2023/08/25 08:12:08;;;;;;;29.77;19.60;;;;;;;-148.15;100.00;61821.78;4985513;28;20302;-90
2023/08/25 08:14:35;;;;;;;28.90;18.87;;;;;;;-148.15;100.00;61821.78;4976163;28;20042;-90
2023/08/25 08:17:02;;;;;;;28.45;17.98;;;;;;;-148.15;100.00;61821.78;4980568;28;20015;-90
2023/08/25 08:19:28;;;;;;;23.75;16.58;;;;;;;-148.15;100.00;61821.78;4986122;28;20077;-90
2023/08/25 08:21:53;;;;;;;22.13;15.50;;;;;;;-148.15;100.00;61821.78;4974310;28;20125;-90
2023/08/25 08:24:21;;;;;;;21.90;15.18;;;;;;;-148.15;100.00;61821.78;4974865;28;20038;-90
2023/08/25 08:26:46;;;;;;;22.57;13.90;;;;;;;-148.15;100.00;61821.78;4979874;28;20030;-91
2023/08/25 08:29:12;;;;;;;22.80;15.05;;;;;;;-148.15;100.00;61821.78;4976714;28;20026;-91
2023/08/25 08:31:37;;;;;;;26.07;15.07;;;;;;;-148.15;100.00;61821.78;4974708;28;20022;-91
2023/08/25 08:34:03;;;;;;;17.80;14.33;;;;;;;-148.15;100.00;61821.78;4978405;28;20090;-91
2023/08/25 08:36:28;;;;;;;20.80;12.55;;;;;;;-148.15;100.00;61821.78;4979431;28;20074;-90
2023/08/25 08:38:53;;;;;;;16.60;13.37;;;;;;;-148.15;100.00;61821.78;4979329;28;20059;-91
2023/08/25 08:41:20;;;;;;;17.73;14.30;;;;;;;-148.15;100.00;61821.78;4980239;28;20129;-92
2023/08/25 08:43:45;;;;;;;17.65;13.63;;;;;;;-148.15;100.00;61821.78;4979861;28;20110;-91
2023/08/25 08:46:15;;;;;;;17.58;13.50;;;;;;;-148.15;100.00;61821.78;4979162;28;20483;-91
2023/08/25 08:48:41;;;;;;;16.52;13.93;;;;;;;-148.15;100.00;61821.78;4975285;28;20034;-91
2023/08/25 08:51:07;;;;;;;18.55;13.60;;;;;;;-148.15;100.00;61821.78;4973441;28;20085;-92
2023/08/25 08:53:33;;;;;;;19.63;13.38;;;;;;;-148.15;100.00;61821.78;4972790;28;20102;-91
2023/08/25 08:55:59;;;;;;;18.90;14.13;;;;;;;-148.15;100.00;61821.78;4973719;28;20491;-91
2023/08/25 08:58:24;;;;;;;20.40;14.85;;;;;;;-148.15;100.00;61821.78;4977733;28;20104;-92
2023/08/25 09:00:52;;;;;;;19.53;15.37;;;;;;;-148.15;100.00;61821.78;4977855;28;20062;-91
2023/08/25 09:03:21;;;;;;;17.42;14.18;;;;;;;-148.15;100.00;61821.78;4977434;28;20038;-91
2023/08/25 09:05:47;;;;;;;18.58;15.73;;;;;;;-148.15;100.00;61821.78;4976738;28;20033;-90
2023/08/25 09:08:13;;;;;;;23.77;15.45;;;;;;;-148.15;100.00;61821.78;4976193;28;20023;-91
2023/08/25 09:10:39;;;;;;;21.73;15.70;;;;;;;-148.15;100.00;61821.78;4974879;28;20069;-91
2023/08/25 09:13:04;;;;;;;20.92;15.50;;;;;;;-148.15;100.00;61821.78;4973772;28;20033;-90
2023/08/25 09:15:32;;;;;;;21.53;15.63;;;;;;;-148.15;100.00;61821.78;4972828;28;20034;-92
2023/08/25 09:18:06;;;;;;;22.02;16.48;;;;;;;-148.15;100.00;61821.78;4973009;28;20029;-91
2023/08/25 09:20:35;;;;;;;23.15;15.32;;;;;;;-148.15;100.00;61821.78;4958671;28;20094;-91
2023/08/25 09:23:02;;;;;;;24.63;15.87;;;;;;;-148.15;100.00;61821.78;4975913;28;20027;-89
2023/08/25 09:25:28;;;;;;;23.40;15.73;;;;;;;-148.15;100.00;61821.78;4974920;28;20302;-90
2023/08/25 09:28:00;;;;;;;26.33;15.85;;;;;;;-148.15;100.00;61821.78;4972495;28;20034;-89
2023/08/25 09:30:36;;;;;;;27.50;18.15;;;;;;;-148.15;100.00;61821.78;4982483;28;20019;-90
2023/08/25 09:33:06;;;;;;;22.52;17.35;;;;;;;-148.15;100.00;61821.78;4981927;28;20311;-90
2023/08/25 09:35:32;;;;;;;22.75;16.98;;;;;;;-148.15;100.00;61821.78;4978155;28;20031;-90
2023/08/25 09:37:58;;;;;;;23.05;17.30;;;;;;;-148.15;100.00;61821.78;4989847;28;20027;-90
2023/08/25 09:40:27;;;;;;;18.93;15.70;;;;;;;-148.15;100.00;61821.78;4977890;28;20114;-92
2023/08/25 09:43:05;;;;;;;22.17;16.27;;;;;;;-148.15;100.00;61821.78;4975376;28;20111;-92
2023/08/25 09:45:32;;;;;;;19.23;14.85;;;;;;;-148.15;100.00;61821.78;4977245;28;20390;-91
2023/08/25 09:48:07;;;;;;;30.85;16.58;;;;;;;-148.15;100.00;61821.78;4958138;28;20054;-92
2023/08/25 09:50:40;;;;;;;21.63;16.50;;;;;;;-148.15;100.00;61821.78;4975585;28;20073;-92
2023/08/25 09:53:06;;;;;;;24.83;16.52;;;;;;;-148.15;100.00;61821.78;4978332;28;20089;-91
2023/08/25 09:55:36;;;;;;;20.77;17.50;;;;;;;-148.15;100.00;61821.78;4974658;28;20023;-92
2023/08/25 09:58:06;;;;;;;25.13;18.40;;;;;;;-148.15;100.00;61821.78;4960657;28;20632;-92
2023/08/25 10:00:38;;;;;;;20.03;16.97;;;;;;;-148.15;100.00;61821.78;4974302;28;20697;-91
2023/08/25 10:03:10;;;;;;;26.33;18.55;;;;;;;-148.15;100.00;61821.78;4979504;28;20031;-91
2023/08/25 10:05:38;;;;;;;24.92;19.08;;;;;;;-148.15;100.00;61821.78;4982754;28;20022;-93
2023/08/25 10:08:06;;;;;;;26.48;19.65;;;;;;;-148.15;100.00;61821.78;4966396;28;20050;-92
2023/08/25 10:10:35;;;;;;;27.50;21.35;;;;;;;-148.15;100.00;61821.78;4962884;28;20035;-91
2023/08/25 10:13:03;;;;;;;30.55;22.88;;;;;;;-148.15;100.00;61821.78;4980570;28;20122;-90
2023/08/25 10:15:30;;;;;;;39.25;26.65;;;;;;;-148.15;100.00;61821.78;4983521;28;20023;-91
2023/08/25 10:18:02;;;;;;;29.65;22.10;;;;;;;-148.15;100.00;61821.78;4976304;28;20471;-91
2023/08/25 10:20:29;;;;;;;26.25;20.35;;;;;;;-148.15;100.00;61821.78;4976235;28;20089;-90
2023/08/25 10:22:56;;;;;;;22.07;19.00;;;;;;;-148.15;100.00;61821.78;4958630;28;20023;-91
2023/08/25 10:25:29;;;;;;;17.53;15.73;;;;;;;-148.15;100.00;61821.78;4979179;28;20282;-91
2023/08/25 10:27:58;;;;;;;18.10;14.73;;;;;;;-148.15;100.00;61821.78;4979660;28;20038;-92
2023/08/25 10:30:24;;;;;;;19.48;16.52;;;;;;;-148.15;100.00;61821.78;4947681;28;20035;-90
2023/08/25 10:33:13;;;;;;;18.02;16.23;;;;;;;-148.15;100.00;61821.78;4981222;28;20098;-90
2023/08/25 10:35:40;;;;;;;18.73;16.25;;;;;;;-148.15;100.00;61821.78;4962470;28;20550;-92
2023/08/25 10:38:22;;;;;;;23.05;16.02;;;;;;;-148.15;100.00;61821.78;4979929;28;20370;-92
2023/08/25 10:40:55;;;;;;;18.90;16.90;;;;;;;-148.15;100.00;61821.78;4982655;28;20058;-91
2023/08/25 10:43:31;;;;;;;18.70;15.80;;;;;;;-148.15;100.00;61821.78;4978477;28;20026;-90
2023/08/25 10:46:02;;;;;;;17.67;15.80;;;;;;;-148.15;100.00;61821.78;4979108;28;20055;-91
2023/08/25 10:48:27;;;;;;;17.83;14.97;;;;;;;-148.15;100.00;61821.78;4986683;28;20031;-91
2023/08/25 10:51:04;;;;;;;20.10;15.23;;;;;;;-148.15;100.00;61821.78;4976519;28;20959;-91
2023/08/25 10:53:49;;;;;;;16.00;14.20;;;;;;;-148.15;100.00;61821.78;4974758;28;20125;-91